Time;durP1;ratioP1;P1;durP2;ratioP2;P2;SDS_P1;SDS_P2;PMS_P1;PMS_P2;Temp;Humidity;BMP_temperature;BMP_pressure;BME280_temperature;BME280_humidity;BME280_pressure;Samples;Min_cycle;Max_cycle;Signal;HPM_P1;HPM_P2
2022/01/25 00:15:06;;;;;;;;;89.25;73.25;;;;;;;;5087310;27;45464;-65
2022/01/25 00:30:10;;;;;;;;;79.25;60.25;;;;;;;;5092334;27;45666;-64
2022/01/25 00:32:22;;;;;;;;;90.75;70.25;;;;;;;;5089393;27;45436;-65
2022/01/25 00:34:47;;;;;;;;;91.00;75.00;;;;;;;;5090916;27;45489;-63
2022/01/25 00:37:13;;;;;;;;;89.00;68.25;;;;;;;;5078060;27;45477;-65
2022/01/25 00:39:38;;;;;;;;;85.50;68.75;;;;;;;;5101249;27;46419;-65
2022/01/25 00:42:05;;;;;;;;;87.75;68.00;;;;;;;;5100531;27;45419;-65
2022/01/25 00:44:35;;;;;;;;;87.75;73.25;;;;;;;;5099418;27;45512;-64
2022/01/25 00:47:01;;;;;;;;;89.00;71.50;;;;;;;;5097467;27;45656;-65
2022/01/25 00:49:27;;;;;;;;;84.75;67.00;;;;;;;;5096997;27;47000;-64
2022/01/25 00:54:29;;;;;;;;;90.50;70.50;;;;;;;;5098450;27;45980;-64
2022/01/25 00:56:55;;;;;;;;;80.00;66.00;;;;;;;;5098671;27;45367;-65
2022/01/25 00:59:22;;;;;;;;;85.75;65.50;;;;;;;;5099892;27;46510;-65
2022/01/25 01:01:49;;;;;;;;;71.75;57.00;;;;;;;;5077697;27;46042;-65
2022/01/25 01:04:14;;;;;;;;;82.00;65.25;;;;;;;;5098006;27;45519;-65
2022/01/25 01:06:43;;;;;;;;;86.75;67.50;;;;;;;;5079802;27;45481;-64
2022/01/25 01:09:10;;;;;;;;;81.75;65.50;;;;;;;;5097166;27;46856;-65
2022/01/25 01:11:42;;;;;;;;;86.00;66.50;;;;;;;;5099494;27;45593;-63
2022/01/25 01:33:24;;;;;;;;;;;;;;;;;;;;;
2022/01/25 01:35:41;;;;;;;;;82.00;64.50;;;;;;;;5100173;27;45376;-65
2022/01/25 01:38:43;;;;;;;;;79.25;63.25;;;;;;;;5079198;27;45572;-64
2022/01/25 01:43:34;;;;;;;;;81.75;64.00;;;;;;;;5097380;27;45322;-65
2022/01/25 01:48:45;;;;;;;;;79.75;64.75;;;;;;;;5093886;27;45468;-65
2022/01/25 01:51:18;;;;;;;;;75.25;58.00;;;;;;;;5077719;27;46681;-65
2022/01/25 01:53:43;;;;;;;;;82.25;65.25;;;;;;;;5073123;27;45445;-64
2022/01/25 01:56:08;;;;;;;;;84.00;66.50;;;;;;;;5076210;27;45422;-64
2022/01/25 01:58:35;;;;;;;;;79.00;60.25;;;;;;;;5075584;27;45678;-64
2022/01/25 02:01:01;;;;;;;;;81.50;64.50;;;;;;;;5092461;27;45526;-64
2022/01/25 02:03:26;;;;;;;;;39.75;36.50;;;;;;;;5093444;27;45402;-63
2022/01/25 02:05:51;;;;;;;;;87.75;69.75;;;;;;;;5094250;27;45346;-64
2022/01/25 02:08:17;;;;;;;;;87.50;70.75;;;;;;;;5075279;27;45449;-66
2022/01/25 02:10:42;;;;;;;;;91.25;75.00;;;;;;;;5074513;27;47474;-65
2022/01/25 02:13:08;;;;;;;;;87.25;68.00;;;;;;;;5075281;27;46269;-66
2022/01/25 02:15:36;;;;;;;;;79.75;64.50;;;;;;;;5073775;27;45925;-64
2022/01/25 02:23:29;;;;;;;;;89.00;69.00;;;;;;;;5095798;27;45606;-64
2022/01/25 02:25:56;;;;;;;;;85.25;65.50;;;;;;;;5093196;27;45427;-64
2022/01/25 02:28:23;;;;;;;;;83.00;65.75;;;;;;;;5092207;27;45466;-65
2022/01/25 02:30:48;;;;;;;;;88.50;69.25;;;;;;;;5092098;27;45473;-64
2022/01/25 02:33:13;;;;;;;;;84.50;66.75;;;;;;;;5093325;27;45466;-63
2022/01/25 02:35:40;;;;;;;;;76.75;61.00;;;;;;;;5094871;27;45535;-64
2022/01/25 02:38:06;;;;;;;;;79.50;64.50;;;;;;;;5074383;27;45694;-65
2022/01/25 02:40:31;;;;;;;;;85.00;66.50;;;;;;;;5093338;27;45580;-65
2022/01/25 02:42:56;;;;;;;;;86.50;68.25;;;;;;;;5093451;27;45311;-65
2022/01/25 02:45:22;;;;;;;;;81.00;65.25;;;;;;;;5073782;27;45528;-64
2022/01/25 02:50:31;;;;;;;;;84.25;66.50;;;;;;;;5080479;27;45530;-65
2022/01/25 02:52:56;;;;;;;;;83.00;66.50;;;;;;;;5088803;27;45313;-66
2022/01/25 02:55:22;;;;;;;;;76.25;62.75;;;;;;;;5093081;27;45534;-65
2022/01/25 02:57:47;;;;;;;;;82.25;65.50;;;;;;;;5074509;27;45378;-64
2022/01/25 03:00:14;;;;;;;;;81.00;63.00;;;;;;;;5091883;27;46524;-64
2022/01/25 03:02:39;;;;;;;;;82.50;65.50;;;;;;;;5089502;27;45613;-64
2022/01/25 03:05:05;;;;;;;;;82.00;65.25;;;;;;;;5092700;27;45569;-65
2022/01/25 03:07:30;;;;;;;;;80.25;63.50;;;;;;;;5074357;27;45496;-65
2022/01/25 03:09:58;;;;;;;;;77.25;62.50;;;;;;;;5074182;27;46614;-65
2022/01/25 03:12:33;;;;;;;;;79.25;61.00;;;;;;;;5092980;27;45609;-65
2022/01/25 03:15:22;;;;;;;;;77.50;59.75;;;;;;;;5092257;27;45864;-66
2022/01/25 03:17:49;;;;;;;;;79.50;60.50;;;;;;;;5094001;27;45450;-66
2022/01/25 03:20:21;;;;;;;;;75.50;60.50;;;;;;;;5072336;27;47790;-65
2022/01/25 03:25:18;;;;;;;;;46.75;41.25;;;;;;;;5092264;27;45713;-66
2022/01/25 03:27:43;;;;;;;;;75.75;57.75;;;;;;;;5090069;27;45967;-65
2022/01/25 03:30:09;;;;;;;;;76.25;58.25;;;;;;;;5091433;27;45435;-65
2022/01/25 03:32:34;;;;;;;;;76.25;59.25;;;;;;;;5093710;27;45419;-65
2022/01/25 03:34:59;;;;;;;;;75.00;60.25;;;;;;;;5073871;27;45580;-65
2022/01/25 03:37:24;;;;;;;;;79.00;60.50;;;;;;;;5092584;27;46114;-65
2022/01/25 03:39:49;;;;;;;;;75.00;58.50;;;;;;;;5092269;27;45653;-65
2022/01/25 03:42:16;;;;;;;;;74.50;60.75;;;;;;;;5091257;27;45404;-65
2022/01/25 03:44:43;;;;;;;;;71.50;59.25;;;;;;;;5093991;27;45735;-65
2022/01/25 03:47:12;;;;;;;;;71.00;56.75;;;;;;;;5090431;27;45876;-65
2022/01/25 03:52:35;;;;;;;;;77.00;57.50;;;;;;;;5069658;27;45482;-65
2022/01/25 03:55:00;;;;;;;;;79.25;63.75;;;;;;;;5091727;27;45642;-64
2022/01/25 03:57:26;;;;;;;;;72.00;57.25;;;;;;;;5089905;27;45632;-65
2022/01/25 03:59:52;;;;;;;;;72.75;56.00;;;;;;;;5073413;27;47207;-65
2022/01/25 04:02:17;;;;;;;;;68.00;53.00;;;;;;;;5073930;27;45461;-65
2022/01/25 04:04:43;;;;;;;;;68.00;53.75;;;;;;;;5072419;27;45919;-66
2022/01/25 04:07:10;;;;;;;;;67.75;55.75;;;;;;;;5091399;27;45549;-65
2022/01/25 04:09:36;;;;;;;;;67.00;53.00;;;;;;;;5072658;27;47232;-65
2022/01/25 04:12:02;;;;;;;;;66.25;52.50;;;;;;;;5091225;27;45497;-65
2022/01/25 04:14:28;;;;;;;;;67.75;55.50;;;;;;;;5094023;27;45414;-65
2022/01/25 04:17:01;;;;;;;;;64.50;50.75;;;;;;;;5090083;27;45376;-65
2022/01/25 04:19:40;;;;;;;;;63.00;50.00;;;;;;;;5073240;27;48100;-65
2022/01/25 04:25:02;;;;;;;;;67.25;54.25;;;;;;;;5091790;27;45487;-65
2022/01/25 04:27:27;;;;;;;;;66.00;53.00;;;;;;;;5066644;27;45405;-64
2022/01/25 04:29:53;;;;;;;;;63.00;54.00;;;;;;;;5088639;27;46907;-64
2022/01/25 04:32:19;;;;;;;;;62.50;51.75;;;;;;;;5062281;28;46205;-66
2022/01/25 04:35:07;;;;;;;;;62.50;52.50;;;;;;;;5086310;27;45463;-65
2022/01/25 04:51:32;;;;;;;;;61.00;48.00;;;;;;;;5091458;27;45468;-64
2022/01/25 04:59:12;;;;;;;;;59.25;46.75;;;;;;;;5091075;27;45531;-65
2022/01/25 05:01:39;;;;;;;;;63.25;48.00;;;;;;;;5069198;27;48817;-65
2022/01/25 05:04:12;;;;;;;;;62.00;48.00;;;;;;;;5090951;27;45500;-65
2022/01/25 05:06:38;;;;;;;;;64.75;50.50;;;;;;;;5090843;27;45779;-65
2022/01/25 05:09:08;;;;;;;;;65.50;51.75;;;;;;;;5091472;27;45887;-65
2022/01/25 05:11:36;;;;;;;;;62.00;47.75;;;;;;;;5071994;27;45600;-64
2022/01/25 05:16:33;;;;;;;;;61.75;49.50;;;;;;;;5083830;27;45369;-65
2022/01/25 05:19:22;;;;;;;;;66.25;50.75;;;;;;;;5088231;27;45425;-64
2022/01/25 05:22:17;;;;;;;;;65.50;52.75;;;;;;;;5070877;27;47725;-65
2022/01/25 05:24:44;;;;;;;;;63.50;52.25;;;;;;;;5094444;27;46037;-66
2022/01/25 05:27:11;;;;;;;;;71.00;56.75;;;;;;;;5074864;27;45528;-65
2022/01/25 05:29:36;;;;;;;;;72.75;56.25;;;;;;;;5065536;28;45585;-65
2022/01/25 05:32:02;;;;;;;;;66.25;53.00;;;;;;;;5074504;27;46345;-66
2022/01/25 05:34:27;;;;;;;;;73.50;58.25;;;;;;;;5092961;27;45747;-66
2022/01/25 05:36:53;;;;;;;;;73.25;55.25;;;;;;;;5094511;27;45369;-65
2022/01/25 05:39:23;;;;;;;;;68.00;52.75;;;;;;;;5090982;27;45424;-66
2022/01/25 05:41:56;;;;;;;;;74.50;57.75;;;;;;;;5094133;27;45906;-65
2022/01/25 05:44:26;;;;;;;;;72.00;56.00;;;;;;;;5091964;27;45381;-66
2022/01/25 05:49:23;;;;;;;;;64.25;52.50;;;;;;;;5086847;27;45477;-66
2022/01/25 05:51:49;;;;;;;;;68.75;53.75;;;;;;;;5059409;27;47702;-64
2022/01/25 05:54:14;;;;;;;;;51.25;41.50;;;;;;;;5087790;27;45413;-65
2022/01/25 05:56:39;;;;;;;;;66.75;53.00;;;;;;;;5077334;27;45449;-64
2022/01/25 05:59:05;;;;;;;;;65.00;51.75;;;;;;;;5093058;27;45592;-66
2022/01/25 06:01:31;;;;;;;;;68.00;53.00;;;;;;;;5070112;27;46326;-65
2022/01/25 06:03:57;;;;;;;;;63.50;54.25;;;;;;;;5088771;27;45278;-66
2022/01/25 06:06:22;;;;;;;;;66.75;54.25;;;;;;;;5072877;27;45634;-65
2022/01/25 06:08:47;;;;;;;;;65.25;54.75;;;;;;;;5078905;27;45704;-67
2022/01/25 06:11:12;;;;;;;;;74.00;57.75;;;;;;;;5076866;27;48958;-67
2022/01/25 06:13:37;;;;;;;;;68.75;56.50;;;;;;;;5075045;27;45594;-66
2022/01/25 06:16:03;;;;;;;;;65.75;51.50;;;;;;;;5092310;27;45399;-67
2022/01/25 06:18:28;;;;;;;;;62.00;51.75;;;;;;;;5085489;27;45401;-67
2022/01/25 06:20:53;;;;;;;;;68.00;53.00;;;;;;;;5071913;27;48236;-67
2022/01/25 06:23:20;;;;;;;;;66.25;54.50;;;;;;;;5077474;27;45342;-67
2022/01/25 06:25:45;;;;;;;;;61.75;48.50;;;;;;;;5091794;27;45495;-67
2022/01/25 06:28:11;;;;;;;;;62.50;52.75;;;;;;;;5092791;27;45546;-66
2022/01/25 06:30:36;;;;;;;;;66.50;53.75;;;;;;;;5088346;27;46512;-64
2022/01/25 06:33:01;;;;;;;;;65.25;51.00;;;;;;;;5091341;27;45912;-66
2022/01/25 06:35:31;;;;;;;;;71.25;57.50;;;;;;;;5075170;27;45353;-66
2022/01/25 06:37:57;;;;;;;;;63.50;51.75;;;;;;;;5092698;27;45525;-65
2022/01/25 06:40:24;;;;;;;;;61.25;51.75;;;;;;;;5093245;27;46451;-66
2022/01/25 06:42:49;;;;;;;;;63.75;50.25;;;;;;;;5072885;27;45859;-65
2022/01/25 06:45:18;;;;;;;;;64.75;50.00;;;;;;;;5074385;27;45428;-63
2022/01/25 06:47:44;;;;;;;;;63.75;52.25;;;;;;;;5094926;27;45742;-64
2022/01/25 06:50:10;;;;;;;;;61.50;49.75;;;;;;;;5091681;27;45444;-64
2022/01/25 06:52:37;;;;;;;;;62.00;49.50;;;;;;;;5093305;27;45453;-65
2022/01/25 06:55:04;;;;;;;;;65.00;51.00;;;;;;;;5090816;27;45466;-65
2022/01/25 06:57:29;;;;;;;;;65.00;52.00;;;;;;;;5074974;27;45497;-66
2022/01/25 06:59:54;;;;;;;;;71.25;56.50;;;;;;;;5093725;27;46147;-66
2022/01/25 07:02:20;;;;;;;;;58.75;46.25;;;;;;;;5075835;27;46065;-66
2022/01/25 07:04:45;;;;;;;;;54.50;48.25;;;;;;;;5092973;27;45492;-66
2022/01/25 07:07:10;;;;;;;;;67.25;52.25;;;;;;;;5092975;27;45332;-66
2022/01/25 07:09:36;;;;;;;;;65.25;50.75;;;;;;;;5074525;27;47879;-65
2022/01/25 07:12:02;;;;;;;;;62.75;51.00;;;;;;;;5092842;27;45422;-65
2022/01/25 07:14:27;;;;;;;;;68.50;54.00;;;;;;;;5076160;27;45331;-64
2022/01/25 07:16:53;;;;;;;;;64.75;51.50;;;;;;;;5089980;27;45523;-64
2022/01/25 07:19:18;;;;;;;;;62.25;52.00;;;;;;;;5091762;27;47475;-65
2022/01/25 07:21:43;;;;;;;;;61.75;50.25;;;;;;;;5092140;27;45495;-65
2022/01/25 07:24:08;;;;;;;;;66.25;50.25;;;;;;;;5092704;27;45458;-65
2022/01/25 07:26:34;;;;;;;;;77.50;56.00;;;;;;;;5094803;27;45516;-65
2022/01/25 07:28:59;;;;;;;;;71.75;53.25;;;;;;;;5092304;27;46500;-65
2022/01/25 07:31:24;;;;;;;;;66.75;52.00;;;;;;;;5088719;27;45813;-65
2022/01/25 07:33:49;;;;;;;;;62.00;50.25;;;;;;;;5082769;27;45589;-65
2022/01/25 07:36:15;;;;;;;;;61.25;50.00;;;;;;;;5074204;27;45544;-65
2022/01/25 07:38:40;;;;;;;;;55.75;46.75;;;;;;;;5094781;27;45380;-65
2022/01/25 07:41:05;;;;;;;;;65.50;53.00;;;;;;;;5084516;27;45431;-65
2022/01/25 07:43:30;;;;;;;;;68.75;54.50;;;;;;;;5085693;27;45446;-65
2022/01/25 07:45:58;;;;;;;;;71.75;56.00;;;;;;;;5071158;27;45382;-64
2022/01/25 07:48:24;;;;;;;;;69.00;52.50;;;;;;;;5092459;27;46714;-65
2022/01/25 07:50:50;;;;;;;;;70.25;52.75;;;;;;;;5093073;27;45507;-66
2022/01/25 07:53:15;;;;;;;;;67.00;51.00;;;;;;;;5074687;27;45440;-65
2022/01/25 07:55:40;;;;;;;;;58.00;49.25;;;;;;;;5092536;27;45374;-65
2022/01/25 07:58:06;;;;;;;;;69.00;54.00;;;;;;;;5071403;27;46614;-65
2022/01/25 08:00:31;;;;;;;;;70.25;56.75;;;;;;;;5090920;27;45483;-65
2022/01/25 08:02:56;;;;;;;;;62.75;50.00;;;;;;;;5092416;27;45377;-65
2022/01/25 08:05:24;;;;;;;;;63.25;52.00;;;;;;;;5094177;27;46159;-65
2022/01/25 08:07:49;;;;;;;;;58.00;47.25;;;;;;;;5074049;27;46693;-65
2022/01/25 08:10:14;;;;;;;;;63.50;50.75;;;;;;;;5091798;27;45591;-64
2022/01/25 08:12:40;;;;;;;;;61.75;50.50;;;;;;;;5073945;27;45677;-65
2022/01/25 08:15:06;;;;;;;;;67.50;53.75;;;;;;;;5091983;27;45534;-65
2022/01/25 08:17:31;;;;;;;;;57.75;47.00;;;;;;;;5094092;27;45804;-65
2022/01/25 08:19:56;;;;;;;;;65.25;51.75;;;;;;;;5073285;27;46182;-65
2022/01/25 08:22:23;;;;;;;;;66.25;52.75;;;;;;;;5091556;27;45589;-65
2022/01/25 08:24:48;;;;;;;;;58.25;48.50;;;;;;;;5091943;27;45521;-64
2022/01/25 08:27:14;;;;;;;;;66.75;52.50;;;;;;;;5073595;27;48754;-64
2022/01/25 08:29:39;;;;;;;;;74.75;52.00;;;;;;;;5093485;27;45862;-64
2022/01/25 08:32:05;;;;;;;;;72.50;56.50;;;;;;;;5090187;27;45559;-64
2022/01/25 08:34:30;;;;;;;;;72.75;56.00;;;;;;;;5091955;27;45421;-64
2022/01/25 08:36:56;;;;;;;;;66.75;50.75;;;;;;;;5091816;27;45984;-65
2022/01/25 08:39:22;;;;;;;;;73.75;55.25;;;;;;;;5091792;27;45474;-65
2022/01/25 08:41:47;;;;;;;;;68.25;52.50;;;;;;;;5074856;27;45487;-65
2022/01/25 08:44:12;;;;;;;;;71.75;55.75;;;;;;;;5074006;27;45329;-65
2022/01/25 08:46:39;;;;;;;;;72.50;56.75;;;;;;;;5090076;27;46280;-66
2022/01/25 08:49:04;;;;;;;;;72.50;52.50;;;;;;;;5091537;27;45309;-65
2022/01/25 08:51:29;;;;;;;;;68.25;56.50;;;;;;;;5090612;27;45836;-65
2022/01/25 08:53:55;;;;;;;;;73.25;57.00;;;;;;;;5072536;27;45408;-65
2022/01/25 08:56:20;;;;;;;;;74.25;55.50;;;;;;;;5091308;27;45579;-65
2022/01/25 08:58:45;;;;;;;;;63.25;50.75;;;;;;;;5075256;27;45571;-65
2022/01/25 09:01:10;;;;;;;;;63.00;52.00;;;;;;;;5072257;27;45596;-65
2022/01/25 09:03:36;;;;;;;;;59.50;48.75;;;;;;;;5076902;27;45054;-65
2022/01/25 09:06:02;;;;;;;;;68.50;52.50;;;;;;;;5067537;27;48667;-65
2022/01/25 09:08:28;;;;;;;;;72.50;58.00;;;;;;;;5077040;27;45405;-65
2022/01/25 09:10:58;;;;;;;;;64.25;49.00;;;;;;;;5075994;27;45915;-65
2022/01/25 09:13:24;;;;;;;;;68.00;53.25;;;;;;;;5095024;27;45801;-64
2022/01/25 09:15:49;;;;;;;;;69.00;54.75;;;;;;;;5093325;27;46922;-65
2022/01/25 09:18:14;;;;;;;;;67.25;53.50;;;;;;;;5095092;27;45438;-65
2022/01/25 09:20:40;;;;;;;;;56.00;46.25;;;;;;;;5096963;27;45628;-65
2022/01/25 09:23:05;;;;;;;;;66.00;55.00;;;;;;;;5094751;27;45733;-65
2022/01/25 09:25:31;;;;;;;;;71.75;58.00;;;;;;;;5094409;27;45713;-64
2022/01/25 09:27:57;;;;;;;;;68.25;54.25;;;;;;;;5094599;27;45502;-65
2022/01/25 09:30:22;;;;;;;;;66.25;54.25;;;;;;;;5093634;27;45668;-65
2022/01/25 09:32:47;;;;;;;;;73.25;55.25;;;;;;;;5075920;27;45524;-65
2022/01/25 09:35:13;;;;;;;;;64.50;52.00;;;;;;;;5076892;27;47675;-65
2022/01/25 09:37:38;;;;;;;;;71.25;55.75;;;;;;;;5075957;27;45515;-64
2022/01/25 09:40:04;;;;;;;;;70.00;54.25;;;;;;;;5094838;27;45418;-65
2022/01/25 09:42:30;;;;;;;;;60.00;49.75;;;;;;;;5076449;27;45572;-65
2022/01/25 09:44:56;;;;;;;;;58.50;48.75;;;;;;;;5075409;27;47538;-65
2022/01/25 09:47:21;;;;;;;;;68.25;56.75;;;;;;;;5095110;27;45736;-64
2022/01/25 09:49:46;;;;;;;;;67.00;54.75;;;;;;;;5075825;27;45601;-64
2022/01/25 09:52:11;;;;;;;;;68.50;52.75;;;;;;;;5094327;27;45523;-65
2022/01/25 09:54:37;;;;;;;;;63.25;51.50;;;;;;;;5094349;27;46477;-64
2022/01/25 09:57:03;;;;;;;;;71.50;56.50;;;;;;;;5094201;27;45367;-64
2022/01/25 09:59:28;;;;;;;;;64.00;52.00;;;;;;;;5096062;27;45358;-64
2022/01/25 10:01:54;;;;;;;;;60.50;49.75;;;;;;;;5074618;27;45548;-65
2022/01/25 10:04:28;;;;;;;;;63.00;49.25;;;;;;;;5094140;27;46464;-65
2022/01/25 10:06:54;;;;;;;;;61.25;48.75;;;;;;;;5092810;27;45459;-65
2022/01/25 10:09:20;;;;;;;;;64.75;49.75;;;;;;;;5075124;27;45695;-65
2022/01/25 10:11:45;;;;;;;;;68.75;52.00;;;;;;;;5077467;27;45507;-66
2022/01/25 10:14:11;;;;;;;;;74.25;56.75;;;;;;;;5094609;27;46355;-65
2022/01/25 10:16:38;;;;;;;;;65.50;53.50;;;;;;;;5092539;27;45401;-65
2022/01/25 10:19:04;;;;;;;;;72.00;55.75;;;;;;;;5091710;27;45411;-65
2022/01/25 10:21:32;;;;;;;;;61.75;51.00;;;;;;;;5085556;27;45498;-65
2022/01/25 10:23:58;;;;;;;;;61.75;49.25;;;;;;;;5070143;27;47531;-65
2022/01/25 10:26:23;;;;;;;;;67.00;50.00;;;;;;;;5061021;27;45492;-64
2022/01/25 10:28:50;;;;;;;;;63.25;53.75;;;;;;;;5092624;27;45434;-65
2022/01/25 10:31:15;;;;;;;;;65.00;52.50;;;;;;;;5092420;27;45684;-65
2022/01/25 10:33:50;;;;;;;;;67.00;52.50;;;;;;;;5093923;27;46528;-65
2022/01/25 10:36:17;;;;;;;;;68.25;55.75;;;;;;;;5077995;27;45541;-65
2022/01/25 10:38:44;;;;;;;;;74.00;56.50;;;;;;;;5077624;27;45475;-65
2022/01/25 10:41:14;;;;;;;;;68.25;53.25;;;;;;;;5074269;27;45534;-65
2022/01/25 10:43:41;;;;;;;;;65.75;52.25;;;;;;;;5093280;27;45602;-65
2022/01/25 10:46:06;;;;;;;;;66.50;52.75;;;;;;;;5091230;27;45905;-65
2022/01/25 10:48:31;;;;;;;;;58.75;50.00;;;;;;;;5093851;27;45557;-64
2022/01/25 10:51:08;;;;;;;;;64.00;50.75;;;;;;;;5093746;27;45315;-64
2022/01/25 10:53:34;;;;;;;;;63.50;52.50;;;;;;;;5082963;27;46234;-65
2022/01/25 10:56:02;;;;;;;;;64.00;51.75;;;;;;;;5084664;27;45344;-65
2022/01/25 10:58:28;;;;;;;;;67.00;55.50;;;;;;;;5085894;27;45584;-65
2022/01/25 11:00:53;;;;;;;;;68.00;56.00;;;;;;;;5082825;27;45478;-65
2022/01/25 11:03:26;;;;;;;;;58.50;49.50;;;;;;;;5091229;27;45735;-65
2022/01/25 11:05:51;;;;;;;;;63.75;51.00;;;;;;;;5074611;27;45961;-65
2022/01/25 11:08:18;;;;;;;;;63.75;50.50;;;;;;;;5093113;27;45549;-66
2022/01/25 11:10:52;;;;;;;;;65.00;53.75;;;;;;;;5093183;27;45531;-65
2022/01/25 11:15:58;;;;;;;;;61.25;48.50;;;;;;;;5091785;27;45403;-65
2022/01/25 11:18:24;;;;;;;;;67.25;52.50;;;;;;;;5089299;27;45375;-66
2022/01/25 11:20:50;;;;;;;;;68.00;51.75;;;;;;;;5081262;27;45576;-66
2022/01/25 11:23:16;;;;;;;;;63.50;51.50;;;;;;;;5073973;27;47847;-66
2022/01/25 11:25:42;;;;;;;;;67.75;52.00;;;;;;;;5087422;27;45476;-66
2022/01/25 11:28:07;;;;;;;;;70.25;55.75;;;;;;;;5087212;27;45598;-65
2022/01/25 11:30:32;;;;;;;;;59.50;49.00;;;;;;;;5085007;27;45419;-65
2022/01/25 11:32:59;;;;;;;;;66.25;53.75;;;;;;;;5090088;27;46004;-65
2022/01/25 11:35:25;;;;;;;;;67.00;54.75;;;;;;;;5083671;27;45581;-66
2022/01/25 11:37:50;;;;;;;;;63.25;45.50;;;;;;;;5069237;27;45618;-65
2022/01/25 11:40:34;;;;;;;;;66.00;50.75;;;;;;;;5067749;27;45551;-66
2022/01/25 11:43:17;;;;;;;;;64.50;52.25;;;;;;;;5089708;27;45635;-65
2022/01/25 11:45:43;;;;;;;;;68.75;54.25;;;;;;;;5077297;27;45486;-65
2022/01/25 11:48:09;;;;;;;;;63.00;52.25;;;;;;;;5071739;27;45456;-65
2022/01/25 11:50:35;;;;;;;;;63.00;49.75;;;;;;;;5093064;27;45490;-65
2022/01/25 11:53:07;;;;;;;;;68.75;52.50;;;;;;;;5088654;27;45665;-67
2022/01/25 11:55:35;;;;;;;;;66.75;50.75;;;;;;;;5089363;27;45578;-66
2022/01/25 11:58:08;;;;;;;;;62.00;51.50;;;;;;;;5090882;27;45421;-66
2022/01/25 12:00:39;;;;;;;;;64.00;49.25;;;;;;;;5070132;27;45384;-66
2022/01/25 12:03:38;;;;;;;;;66.50;53.25;;;;;;;;5091787;27;46486;-66
2022/01/25 12:06:22;;;;;;;;;66.50;51.00;;;;;;;;5026610;28;45789;-66
2022/01/25 12:11:43;;;;;;;;;62.75;50.00;;;;;;;;5029667;28;45598;-66
2022/01/25 12:14:29;;;;;;;;;75.50;57.50;;;;;;;;5029188;28;46201;-66
2022/01/25 12:17:15;;;;;;;;;60.75;48.50;;;;;;;;5010414;28;46638;-66
2022/01/25 12:19:44;;;;;;;;;70.00;52.75;;;;;;;;5016021;28;45512;-68
2022/01/25 12:25:17;;;;;;;;;70.25;56.50;;;;;;;;5029804;28;45611;-65
2022/01/25 12:27:50;;;;;;;;;65.75;52.25;;;;;;;;5029676;28;45621;-65
2022/01/25 12:30:18;;;;;;;;;63.25;48.50;;;;;;;;5028399;28;45866;-64
2022/01/25 12:32:58;;;;;;;;;61.25;50.75;;;;;;;;5029062;28;45496;-65
2022/01/25 12:35:50;;;;;;;;;59.50;48.50;;;;;;;;5028215;28;46361;-66
2022/01/25 12:38:15;;;;;;;;;63.75;52.00;;;;;;;;5022013;28;45477;-65
2022/01/25 12:40:49;;;;;;;;;64.75;52.50;;;;;;;;5031045;28;45749;-66
2022/01/25 12:43:19;;;;;;;;;63.50;54.00;;;;;;;;5085734;27;45774;-67
2022/01/25 12:45:45;;;;;;;;;64.00;54.00;;;;;;;;5074984;27;46540;-65
2022/01/25 12:48:11;;;;;;;;;64.75;48.25;;;;;;;;5089977;27;45395;-65
2022/01/25 12:50:38;;;;;;;;;63.75;49.50;;;;;;;;5089085;27;45539;-65
2022/01/25 12:53:04;;;;;;;;;64.00;52.75;;;;;;;;5068567;27;45656;-65
2022/01/25 12:55:33;;;;;;;;;66.50;51.75;;;;;;;;5089132;27;45635;-65
2022/01/25 12:57:59;;;;;;;;;65.00;52.00;;;;;;;;5090923;27;46183;-66
2022/01/25 13:00:29;;;;;;;;;68.00;53.25;;;;;;;;5063363;27;45516;-66
2022/01/25 13:03:13;;;;;;;;;65.25;55.00;;;;;;;;5084139;27;45660;-66
2022/01/25 13:05:40;;;;;;;;;68.25;52.25;;;;;;;;5093043;27;45877;-67
2022/01/25 13:08:16;;;;;;;;;71.25;51.00;;;;;;;;5062301;28;45703;-66
2022/01/25 13:10:41;;;;;;;;;64.75;52.50;;;;;;;;5081531;27;45247;-67
2022/01/25 13:13:21;;;;;;;;;64.75;52.00;;;;;;;;5091109;27;45991;-66
2022/01/25 13:18:12;;;;;;;;;65.75;50.75;;;;;;;;5082459;27;45523;-66
2022/01/25 13:20:39;;;;;;;;;63.25;51.00;;;;;;;;5078062;27;45605;-66
2022/01/25 13:23:05;;;;;;;;;64.00;50.50;;;;;;;;5089287;27;45438;-65
2022/01/25 13:25:45;;;;;;;;;60.00;49.50;;;;;;;;5088934;27;46544;-66
2022/01/25 13:28:22;;;;;;;;;62.50;49.25;;;;;;;;5088164;27;45390;-65
2022/01/25 13:30:49;;;;;;;;;59.25;49.50;;;;;;;;5088468;27;45555;-65
2022/01/25 13:33:19;;;;;;;;;68.50;52.00;;;;;;;;5086141;27;45652;-65
2022/01/25 13:35:50;;;;;;;;;62.75;51.00;;;;;;;;5089359;27;45711;-65
2022/01/25 13:38:16;;;;;;;;;62.25;49.00;;;;;;;;5090485;27;45349;-65
2022/01/25 13:45:57;;;;;;;;;61.75;50.50;;;;;;;;5092681;27;45899;-65
2022/01/25 13:48:24;;;;;;;;;63.50;49.50;;;;;;;;5094824;27;45663;-66
2022/01/25 13:50:52;;;;;;;;;65.25;48.25;;;;;;;;5096064;27;45371;-66
2022/01/25 13:53:18;;;;;;;;;70.00;53.50;;;;;;;;5095897;27;45494;-65
2022/01/25 13:55:48;;;;;;;;;59.00;47.00;;;;;;;;5075739;27;46459;-65
2022/01/25 13:58:24;;;;;;;;;65.50;47.75;;;;;;;;5094775;27;45746;-65
2022/01/25 14:00:50;;;;;;;;;68.75;51.75;;;;;;;;5074905;27;45733;-65
2022/01/25 14:03:16;;;;;;;;;58.00;46.75;;;;;;;;5094466;27;45882;-65
2022/01/25 14:05:41;;;;;;;;;62.00;48.00;;;;;;;;5092176;27;45940;-65
2022/01/25 14:08:07;;;;;;;;;63.50;51.25;;;;;;;;5075567;27;45342;-65
2022/01/25 14:10:32;;;;;;;;;62.00;50.00;;;;;;;;5094257;27;45577;-65
2022/01/25 14:23:55;;;;;;;;;58.00;45.75;;;;;;;;5087759;27;45446;-65
2022/01/25 14:26:26;;;;;;;;;44.00;39.50;;;;;;;;5071983;28;48499;-65
2022/01/25 14:29:02;;;;;;;;;56.25;47.00;;;;;;;;5087090;27;45614;-65
2022/01/25 14:31:27;;;;;;;;;56.25;46.00;;;;;;;;5084926;27;45544;-66
2022/01/25 14:33:56;;;;;;;;;55.25;41.75;;;;;;;;5093887;27;45435;-66
2022/01/25 14:36:22;;;;;;;;;58.75;44.50;;;;;;;;5093723;27;46416;-65
2022/01/25 14:38:48;;;;;;;;;60.75;45.75;;;;;;;;5076271;27;45636;-65
2022/01/25 14:41:15;;;;;;;;;57.25;44.75;;;;;;;;5094471;27;47462;-65
2022/01/25 14:43:52;;;;;;;;;63.25;44.25;;;;;;;;5093586;27;45827;-65
2022/01/25 14:46:25;;;;;;;;;49.50;42.50;;;;;;;;5075264;27;45827;-65
2022/01/25 14:48:59;;;;;;;;;50.00;40.50;;;;;;;;5093237;27;45564;-65
2022/01/25 14:51:38;;;;;;;;;57.75;45.00;;;;;;;;5093665;27;45372;-66
2022/01/25 14:54:04;;;;;;;;;49.25;40.25;;;;;;;;5093617;27;49175;-65
2022/01/25 14:56:34;;;;;;;;;48.75;40.50;;;;;;;;5094889;27;46302;-65
2022/01/25 15:01:32;;;;;;;;;50.75;41.00;;;;;;;;5090555;27;45438;-65
2022/01/25 15:03:58;;;;;;;;;58.50;44.25;;;;;;;;5093071;27;45760;-65
2022/01/25 15:06:23;;;;;;;;;55.50;45.25;;;;;;;;5093018;27;46476;-66
2022/01/25 15:08:55;;;;;;;;;51.75;43.50;;;;;;;;5076025;27;45399;-65
2022/01/25 15:11:22;;;;;;;;;56.25;45.25;;;;;;;;5094520;27;45463;-65
2022/01/25 15:13:51;;;;;;;;;56.25;46.25;;;;;;;;5093049;27;45597;-66
2022/01/25 15:16:19;;;;;;;;;58.75;46.75;;;;;;;;5091520;27;46336;-65
2022/01/25 15:18:45;;;;;;;;;51.50;42.00;;;;;;;;5093125;27;45402;-66
2022/01/25 15:21:11;;;;;;;;;72.75;58.75;;;;;;;;5073719;27;45641;-65
2022/01/25 15:23:36;;;;;;;;;58.75;49.50;;;;;;;;5095353;27;45414;-65
2022/01/25 15:26:03;;;;;;;;;56.00;45.00;;;;;;;;5092749;27;45557;-65
2022/01/25 15:28:37;;;;;;;;;59.75;45.75;;;;;;;;5074316;27;45416;-65
2022/01/25 15:31:03;;;;;;;;;51.50;42.25;;;;;;;;5072443;27;45488;-65
2022/01/25 15:33:29;;;;;;;;;60.00;48.25;;;;;;;;5074399;27;45579;-64
2022/01/25 15:35:54;;;;;;;;;58.00;46.00;;;;;;;;5093672;27;46141;-65
2022/01/25 15:38:19;;;;;;;;;51.00;43.00;;;;;;;;5058767;27;45317;-64
2022/01/25 15:40:44;;;;;;;;;62.50;49.25;;;;;;;;5092766;27;45676;-66
2022/01/25 15:43:10;;;;;;;;;64.00;50.00;;;;;;;;5074013;27;45713;-66
2022/01/25 15:46:02;;;;;;;;;62.50;51.00;;;;;;;;5090722;27;46714;-66
2022/01/25 15:48:27;;;;;;;;;58.00;48.25;;;;;;;;5078469;27;45609;-66
2022/01/25 15:50:52;;;;;;;;;51.00;41.50;;;;;;;;5075360;27;45407;-65
2022/01/25 15:53:17;;;;;;;;;58.00;47.75;;;;;;;;5093894;27;45392;-65
2022/01/25 15:55:43;;;;;;;;;63.00;49.00;;;;;;;;5092144;27;45795;-66
2022/01/25 15:58:08;;;;;;;;;63.50;50.50;;;;;;;;5092288;27;45341;-65
2022/01/25 16:00:33;;;;;;;;;58.75;47.75;;;;;;;;5091458;27;45649;-66
2022/01/25 16:03:00;;;;;;;;;55.50;44.00;;;;;;;;5092079;27;45365;-65
2022/01/25 16:05:25;;;;;;;;;58.75;48.00;;;;;;;;5073201;27;48559;-65
2022/01/25 16:07:52;;;;;;;;;56.00;45.50;;;;;;;;5090905;27;45386;-65
2022/01/25 16:10:18;;;;;;;;;60.25;49.25;;;;;;;;5092211;27;45490;-65
2022/01/25 16:12:43;;;;;;;;;61.25;50.75;;;;;;;;5092449;27;45570;-65
2022/01/25 16:15:08;;;;;;;;;64.25;52.25;;;;;;;;5091193;27;45593;-66
2022/01/25 16:17:33;;;;;;;;;64.25;50.25;;;;;;;;5074980;27;45497;-65
2022/01/25 16:19:59;;;;;;;;;67.25;50.25;;;;;;;;5092293;27;45628;-65
2022/01/25 16:22:24;;;;;;;;;64.75;49.00;;;;;;;;5073759;27;45373;-65
2022/01/25 16:24:49;;;;;;;;;61.00;47.75;;;;;;;;5091944;27;46703;-64